Latest Weather Observations for Grafton AgRS

IDN60801

Issued at 8:35 pm EDT Saturday 29 November 2014 (issued every 30 minutes, with the page automatically refreshed every 10 minutes)

About weather observations | Map of weather stations | Latest weather observations for NSW | Other Formats
Station Details ID: 058077 Name: GRAFTON RESEARCH STN Lat: -29.62 Lon: 152.96 Height: 25.0 m
Data from the previous 72 hours. | See also: Recent months for locations in New South Wales
Date/Time
EDT
Temp
°C
App
Temp
°C
Dew
Point
Rel
Hum
%
Delta-T
°C
Wind Press
QNH
hPa
Press
MSL
hPa
Rain
since 9 am
mm
Dir
 
Spd
km/h
Gust
km/h
Spd
kts
Gust
kts
29/08:30pm 21.1 20.1 13.5 62 4.4 NE 11 20 6 11 - - 0.0
29/08:00pm 21.3 20.8 13.7 62 4.4 NE 9 17 5 9 - - 0.0
29/07:30pm 22.0 20.8 13.9 60 4.7 NE 13 24 7 13 - - 0.0
29/07:00pm 23.1 21.7 13.3 54 5.7 NE 13 26 7 14 - - 0.0
29/06:30pm 24.2 22.0 12.2 47 6.8 ENE 15 24 8 13 - - 0.0
29/06:00pm 25.2 23.5 12.4 45 7.4 NE 13 24 7 13 - - 0.0
29/05:30pm 26.1 24.3 13.2 44 7.6 NE 15 26 8 14 - - 0.0
29/05:00pm 26.2 24.3 13.0 44 7.7 NE 15 28 8 15 - - 0.0
29/04:30pm 26.2 24.7 13.0 44 7.7 NE 13 22 7 12 - - 0.0
29/04:00pm 27.8 26.3 13.0 40 8.7 NE 13 20 7 11 - - 0.0
29/03:30pm 27.8 24.9 13.0 40 8.7 ENE 20 32 11 17 - - 0.0
29/03:00pm 28.8 26.9 14.2 40 8.8 NE 17 30 9 16 - - 0.0
29/02:30pm 27.4 25.4 12.6 40 8.6 NE 15 22 8 12 - - 0.0
29/02:00pm 26.8 26.0 13.9 45 7.7 NE 11 22 6 12 - - 0.0
29/01:30pm 27.9 25.9 12.7 39 8.9 ENE 15 28 8 15 - - 0.0
29/01:00pm 27.1 25.8 13.8 44 7.9 E 13 22 7 12 - - 0.0
29/12:30pm 25.5 24.7 13.0 46 7.3 ENE 9 17 5 9 - - 0.0
29/12:00pm 26.1 25.7 15.2 51 6.6 E 11 17 6 9 - - 0.0
29/11:30am 25.1 24.6 13.9 49 6.6 NE 9 19 5 10 - - 0.0
29/11:00am 24.7 24.4 14.5 53 6.1 E 9 15 5 8 - - 0.0
29/10:30am 24.5 23.8 13.1 49 6.6 NE 9 17 5 9 - - 0.0
29/10:00am 25.4 25.2 14.8 52 6.4 N 9 17 5 9 - - 0.0
29/09:30am 23.2 21.8 13.4 54 5.7 N 13 19 7 10 - - 0.0
29/09:00am 23.0 22.8 14.6 59 5.0 NNE 9 13 5 7 - - 0.0
29/08:30am 22.7 23.3 15.3 63 4.4 NE 6 9 3 5 - - 0.0
29/08:00am 22.6 23.9 16.2 67 3.9 SE 4 7 2 4 - - 0.0
29/07:30am 20.8 23.1 16.8 78 2.4 CALM 0 6 0 3 - - 0.0
29/07:00am 19.2 21.7 17.3 89 1.2 CALM 0 0 0 0 - - 0.0
29/06:30am 18.3 21.0 17.7 96 0.4 CALM 0 0 0 0 - - 0.0
29/06:00am 17.2 19.4 16.6 96 0.4 CALM 0 0 0 0 - - 0.0
29/05:30am 16.9 18.9 16.1 95 0.5 CALM 0 0 0 0 - - 0.0
29/05:00am 17.2 19.2 16.1 93 0.7 CALM 0 0 0 0 - - 0.0
29/04:30am 17.4 18.4 16.3 93 0.7 WSW 6 6 3 3 - - 0.0
29/04:00am 17.5 18.5 16.4 93 0.7 W 6 6 3 3 - - 0.0
29/03:30am 17.4 18.4 16.4 94 0.6 WSW 6 7 3 4 - - 0.0
29/03:00am 17.5 18.6 16.5 94 0.6 WSW 6 9 3 5 - - 0.0
29/02:30am 17.6 18.5 16.6 94 0.6 WSW 7 9 4 5 - - 0.0
29/02:00am 17.8 18.9 16.7 93 0.7 WSW 6 7 3 4 - - 0.0
29/01:30am 18.1 20.4 16.8 92 0.8 CALM 0 0 0 0 - - 0.0
29/01:00am 18.5 20.8 16.7 89 1.1 CALM 0 0 0 0 - - 0.0
29/12:30am 19.3 21.7 16.9 86 1.5 CALM 0 0 0 0 - - 0.0
29/12:00am 19.6 22.1 17.2 86 1.5 CALM 0 0 0 0 - - 0.0
 
Date/Time
EDT
Temp
°C
App
Temp
°C
Dew
Point
Rel
Hum
%
Delta-T
°C
Wind Press
QNH
hPa
Press
MSL
hPa
Rain
since 9 am
mm
Dir
 
Spd
km/h
Gust
km/h
Spd
kts
Gust
kts
28/11:30pm 19.6 22.1 17.2 86 1.5 CALM 0 0 0 0 - - 0.0
28/11:00pm 19.7 22.2 17.3 86 1.5 CALM 0 0 0 0 - - 0.0
28/10:30pm 19.5 20.7 17.3 87 1.3 SE 7 9 4 5 - - 0.0
28/10:00pm 19.8 20.6 17.2 85 1.6 SE 9 11 5 6 - - 0.0
28/09:30pm 20.1 20.1 17.1 83 1.8 ESE 13 17 7 9 - - 0.0
28/09:00pm 20.3 20.2 16.9 81 2.1 ESE 13 20 7 11 - - 0.0
28/08:30pm 20.9 20.7 16.7 77 2.5 ESE 13 19 7 10 - - 0.0
28/08:00pm 21.4 20.9 15.9 71 3.3 ESE 13 19 7 10 - - 0.0
28/07:30pm 21.8 21.2 15.6 68 3.7 E 13 17 7 9 - - 0.0
28/07:00pm 22.2 21.3 15.8 67 3.8 E 15 20 8 11 - - 0.0
28/06:30pm 22.3 21.1 16.1 68 3.7 E 17 22 9 12 - - 0.0
28/06:00pm 22.5 20.7 16.1 67 3.9 E 20 28 11 15 - - 0.0
28/05:30pm 22.8 20.9 16.8 69 3.7 ESE 22 35 12 19 - - 0.0
28/05:00pm 23.6 21.4 15.9 62 4.7 ESE 22 35 12 19 - - 0.0
28/04:30pm 25.3 22.9 15.3 54 6.0 E 22 32 12 17 - - 0.0
28/04:00pm 24.4 22.3 15.3 57 5.5 E 20 30 11 16 - - 0.0
28/03:30pm 25.3 23.8 15.3 54 6.0 E 17 22 9 12 - - 0.0
28/03:00pm 25.8 23.8 15.5 53 6.3 ESE 20 32 11 17 - - 0.0
28/02:30pm 25.8 24.4 15.5 53 6.3 E 17 24 9 13 - - 0.0
28/02:00pm 26.8 26.0 17.0 55 6.1 E 17 24 9 13 - - 0.0
28/01:30pm 24.9 22.0 15.2 54 5.8 ESE 24 32 13 17 - - 0.0
28/01:00pm 24.0 22.5 16.3 62 4.7 ESE 19 24 10 13 - - 0.0
28/12:30pm 23.4 21.0 15.5 61 4.7 SE 22 28 12 15 - - 0.0
28/12:00pm 24.9 23.3 16.1 58 5.4 E 19 30 10 16 - - 0.0
28/11:30am 26.3 24.0 14.7 48 7.0 E 20 24 11 13 - - 0.0
28/11:00am 25.3 23.1 14.4 50 6.5 ESE 19 28 10 15 - - 0.0
28/10:30am 25.2 23.0 14.9 52 6.2 ESE 20 28 11 15 - - 0.0
28/10:00am 24.4 22.8 15.9 59 5.2 E 19 28 10 15 - - 0.0
28/09:30am 23.9 21.8 15.1 58 5.3 ESE 20 28 11 15 - - 0.0
28/09:00am 23.6 21.6 15.4 60 4.9 SE 20 26 11 14 - - 3.6
28/08:30am 22.9 22.5 17.1 70 3.6 SE 15 20 8 11 - - 3.6
28/08:00am 21.9 20.7 16.2 70 3.4 SSE 17 20 9 11 - - 3.6
28/07:30am 20.7 20.2 15.9 74 2.9 S 13 17 7 9 - - 3.6
28/07:00am 19.8 20.1 16.1 79 2.2 SSW 9 13 5 7 - - 3.6
28/06:30am 18.6 18.8 15.7 83 1.7 SW 9 13 5 7 - - 3.6
28/06:00am 17.4 17.7 15.0 86 1.4 WSW 7 9 4 5 - - 3.6
28/05:30am 17.8 17.4 15.1 84 1.6 SSW 11 15 6 8 - - 3.6
28/05:00am 18.3 17.9 15.2 82 1.8 SSW 11 15 6 8 - - 3.6
28/04:30am 18.9 18.7 15.6 81 1.9 SSW 11 15 6 8 - - 3.6
28/04:00am 19.2 19.5 15.9 81 2.0 SSW 9 13 5 7 - - 3.6
28/03:30am 19.1 18.6 16.0 82 1.8 S 13 19 7 10 - - 3.6
28/03:00am 19.0 18.5 15.9 82 1.8 S 13 17 7 9 - - 3.6
28/02:30am 19.4 19.1 16.4 83 1.8 S 13 15 7 8 - - 3.6
28/02:00am 19.3 19.1 16.7 85 1.6 SSW 13 17 7 9 - - 3.6
28/01:30am 19.2 19.5 17.0 87 1.3 S 11 15 6 8 - - 3.6
28/01:00am 19.5 20.4 17.6 89 1.2 S 9 17 5 9 - - 3.6
28/12:30am 19.3 21.0 18.0 92 0.8 SSE 6 9 3 5 - - 3.6
28/12:00am 19.2 20.3 18.0 93 0.7 SW 9 13 5 7 - - 3.4
 
Date/Time
EDT
Temp
°C
App
Temp
°C
Dew
Point
Rel
Hum
%
Delta-T
°C
Wind Press
QNH
hPa
Press
MSL
hPa
Rain
since 9 am
mm
Dir
 
Spd
km/h
Gust
km/h
Spd
kts
Gust
kts
27/11:30pm 19.0 20.1 18.0 94 0.6 WSW 9 11 5 6 - - 3.4
27/11:00pm 18.9 19.7 18.1 95 0.5 SW 11 13 6 7 - - 3.4
27/10:30pm 18.8 20.9 18.0 95 0.5 SSE 4 7 2 4 - - 3.2
27/10:00pm 18.9 20.4 18.1 95 0.5 NE 7 11 4 6 - - 1.0
27/09:30pm 19.4 20.4 17.7 90 1.0 E 9 15 5 8 - - 0.2
27/09:00pm 20.2 19.1 17.2 83 1.8 SSE 19 26 10 14 - - 0.0
27/08:30pm 21.4 20.5 16.8 75 2.8 S 17 24 9 13 - - 0.0
27/08:00pm 21.3 20.0 17.3 78 2.5 S 20 32 11 17 - - 0.0
27/07:30pm 20.9 20.3 18.8 88 1.3 SSE 20 28 11 15 - - 0.0
27/07:00pm 22.1 22.5 18.9 82 2.0 SSE 15 22 8 12 - - 0.0
27/06:30pm 22.3 20.5 18.7 80 2.3 SSE 26 33 14 18 - - 0.0
27/06:00pm 23.1 19.4 18.4 75 3.0 SE 35 46 19 25 - - 0.0
27/05:30pm 22.5 19.7 19.1 81 2.2 SE 32 48 17 26 - - 0.0
27/05:00pm 25.6 22.7 18.8 66 4.3 SSE 32 39 17 21 - - 0.0
27/04:30pm 24.2 20.5 19.1 73 3.3 SSE 37 50 20 27 - - 0.0
27/04:04pm 23.6 20.3 19.3 77 2.7 SSE 35 54 19 29 - - 0.0
27/04:00pm 23.2 19.4 18.9 77 2.7 SSE 37 54 20 29 - - 0.0
27/03:42pm 23.9 20.8 18.5 72 3.4 SE 32 50 17 27 - - 0.0
27/03:30pm 24.2 22.0 18.6 71 3.5 SE 28 39 15 21 - - 0.0
27/03:00pm 25.6 22.3 18.0 63 4.8 SE 32 48 17 26 - - 0.0
27/02:30pm 27.4 22.3 17.6 55 6.2 SSE 41 50 22 27 - - 0.0
27/02:00pm 28.0 24.6 19.0 58 5.8 ESE 35 44 19 24 - - 0.0
27/01:38pm 27.7 25.6 19.0 59 5.6 SE 28 46 15 25 - - 0.0
27/01:30pm 28.1 26.3 18.8 57 6.0 SE 26 37 14 20 - - 0.0
27/01:00pm 28.9 28.3 18.9 54 6.5 SE 20 32 11 17 - - 0.0
27/12:30pm 27.4 27.7 19.7 63 5.0 ESE 17 26 9 14 - - 0.0
27/12:00pm 27.7 28.2 20.8 66 4.6 ESE 19 28 10 15 - - 0.0
27/11:30am 26.0 27.2 20.6 72 3.5 SE 15 20 8 11 - - 0.0
27/11:00am 24.5 24.3 20.6 79 2.5 SE 22 26 12 14 - - 0.0
27/10:30am 24.2 24.3 20.3 79 2.5 SSE 20 24 11 13 - - 0.0
27/10:00am 24.9 26.3 21.0 79 2.6 SSE 15 20 8 11 - - 0.0
27/09:30am 25.1 27.8 22.2 84 1.9 SSE 11 15 6 8 - - 0.0
27/09:00am 23.7 27.0 20.8 84 1.9 N 4 9 2 5 - - 0.2
27/08:30am 22.4 25.1 20.7 90 1.1 N 7 11 4 6 - - 0.2
27/08:00am 21.7 24.8 21.0 96 0.5 NNW 6 9 3 5 - - 0.2
27/07:30am 21.1 23.9 20.9 99 0.1 N 7 9 4 5 - - 0.2
27/07:00am 20.9 23.6 20.7 99 0.1 NW 7 9 4 5 - - 0.2
27/06:30am 20.3 22.7 20.1 99 0.1 N 7 9 4 5 - - 0.2
27/06:00am 20.1 22.4 19.9 99 0.1 N 7 9 4 5 - - 0.2
27/05:30am 20.1 22.1 19.9 99 0.1 NNE 9 13 5 7 - - 0.2
27/05:00am 19.9 22.1 19.7 99 0.1 N 7 9 4 5 - - 0.0
27/04:30am 20.1 22.1 19.9 99 0.1 N 9 11 5 6 - - 0.0
27/04:00am 20.4 23.8 20.1 98 0.2 NNW 2 6 1 3 - - 0.0
27/03:30am 20.4 23.0 20.1 98 0.2 WNW 6 7 3 4 - - 0.0
27/03:00am 20.5 24.2 20.0 97 0.3 CALM 0 0 0 0 - - 0.0
27/02:30am 20.7 24.5 20.2 97 0.3 CALM 0 0 0 0 - - 0.0
27/02:00am 20.8 24.7 20.3 97 0.3 CALM 0 0 0 0 - - 0.0
27/01:30am 20.8 24.6 20.1 96 0.4 CALM 0 0 0 0 - - 0.0
27/01:00am 21.0 24.1 20.3 96 0.5 NE 4 6 2 3 - - 0.0
27/12:30am 21.1 23.7 20.4 96 0.5 ENE 7 9 4 5 - - 0.0
27/12:00am 21.1 24.3 20.4 96 0.5 E 4 7 2 4 - - 0.0
 
Date/Time
EDT
Temp
°C
App
Temp
°C
Dew
Point
Rel
Hum
%
Delta-T
°C
Wind Press
QNH
hPa
Press
MSL
hPa
Rain
since 9 am
mm
Dir
 
Spd
km/h
Gust
km/h
Spd
kts
Gust
kts
26/11:30pm 21.0 24.6 19.8 93 0.8 CALM 0 0 0 0 - - 0.0
26/11:00pm 21.7 25.8 20.7 94 0.6 CALM 0 0 0 0 - - 0.0
26/10:30pm 21.7 25.8 20.7 94 0.6 CALM 0 0 0 0 - - 0.0
26/10:00pm 21.7 25.8 20.7 94 0.6 CALM 0 0 0 0 - - 0.0
26/09:30pm 21.7 25.3 20.5 93 0.8 W 2 6 1 3 - - 0.0
26/09:00pm 21.8 24.7 20.6 93 0.8 NW 6 7 3 4 - - 0.0

Other Formats:

Comma delimited format used in spreadsheet applications
http://www.bom.gov.au/fwo/IDN60801/IDN60801.95571.axf

JavaScript Object Notation format (JSON) in row-major order
http://www.bom.gov.au/fwo/IDN60801/IDN60801.95571.json